Portada
METAR-TAF:

METAR-TAF

Aeroports :

Yangon, Myanmar

latitud: 16-46N, longitud: 096-10E, altitud: 14 m

Observació

L'informe es va fer fa 34 minuts, a les 07:00 UTC
Vent 6 kt del Oest
Temperatura 35°C
Humitat 53%
Pressió 1006 hPa
Visibilitat: 8000 m
Cel ennuvolat a una alçada de 2000 ft
Escasses núvols a una alçada de 2500 ft, Cumulonimbus.
Cel ennuvolat a una alçada de 12000 ft

METAR: VYYY 230700Z 26006KT 8000 BKN020 FEW025CB BKN120 35/24 Q1006

Hora: 14:04 (07:34 UTC)

Pronòstic

L'informe es va fer fa 2 hores i 34 minuts, a les 05:00 UTC
Pronòstic vàlid del 23 a les 06 UTC al 24 a les 06 UTC
Vent 6 kt del Oest/Sud-Oest
Visibilitat: 8000 m
Escasses núvols a una alçada de 2000 ft
Temporalment
l' 23 a les 06 UTC al 23 a les 12 UTC
Vent 6 kt del Oest
Visibilitat: 8000 m
Núvols disperses a una alçada de 1600 ft
Escasses núvols a una alçada de 2000 ft, Cumulonimbus.

TAF: VYYY 230500Z 2306/2406 25006KT 8000 FEW020 TEMPO 2306/2312 27006KT 8000 SCT016 FEW020CB

Observacions i pronòstics meteorològics de més de 4000 aeroports (METAR i TAF).

Les estacions disponibles són els punts grocs i vermells al mapa.

Posi el ratolí al punt desitjat per veure el nom de l'estació.

Feu clic per veure les observacions i els pronòstics meteorològics.

Per canviar el mapa: feu clic els botons verds amb una creu de color negre per apropar; al botó verd amb un guió per allunyar la imatge; o en les fletxes verdes per a mapes adjacents.


METAR-TAF: